Time;durP1;ratioP1;P1;durP2;ratioP2;P2;SDS_P1;SDS_P2;PMS_P1;PMS_P2;Temp;Humidity;BMP_temperature;BMP_pressure;BME280_temperature;BME280_humidity;BME280_pressure;Samples;Min_cycle;Max_cycle;Signal;HPM_P1;HPM_P2
2021/05/30 00:01:35;;;;;;;2.42;2.10;;;;;;;8.28;100.00;101892.38;5236659;28;20104;-77
2021/05/30 00:04:05;;;;;;;6.50;2.40;;;;;;;8.00;100.00;101885.53;5241097;28;20111;-78
2021/05/30 00:06:35;;;;;;;3.78;2.58;;;;;;;7.96;100.00;101900.31;5221681;28;20032;-78
2021/05/30 00:09:06;;;;;;;7.32;4.07;;;;;;;7.91;100.00;101901.19;5233294;28;20056;-78
2021/05/30 00:11:36;;;;;;;4.82;3.67;;;;;;;7.81;100.00;101905.56;5239647;28;20056;-78
2021/05/30 00:14:07;;;;;;;4.60;3.63;;;;;;;7.89;100.00;101896.00;5242380;28;20108;-78
2021/05/30 00:16:37;;;;;;;4.47;3.30;;;;;;;7.90;100.00;101904.69;5241022;28;20028;-78
2021/05/30 00:19:07;;;;;;;4.57;3.40;;;;;;;7.70;100.00;101907.31;5237479;28;20040;-78
2021/05/30 00:21:38;;;;;;;7.60;4.70;;;;;;;7.71;100.00;101901.25;5237586;28;20029;-77
2021/05/30 00:24:09;;;;;;;12.13;6.60;;;;;;;7.61;100.00;101907.38;5240681;28;20214;-78
2021/05/30 00:26:39;;;;;;;7.93;4.60;;;;;;;7.65;100.00;101898.69;5219091;28;20032;-78
2021/05/30 00:29:10;;;;;;;12.48;6.55;;;;;;;7.63;100.00;101904.75;5236574;28;20033;-78
2021/05/30 00:31:40;;;;;;;12.85;7.22;;;;;;;7.53;100.00;101898.69;5239350;28;20553;-78
2021/05/30 00:34:10;;;;;;;45.38;22.80;;;;;;;7.68;100.00;101897.81;5236001;28;20460;-77
2021/05/30 00:36:40;;;;;;;87.35;42.00;;;;;;;7.52;100.00;101899.56;5237645;28;20036;-78
2021/05/30 00:39:11;;;;;;;54.40;26.35;;;;;;;7.57;100.00;101899.56;5237551;28;20020;-78
2021/05/30 00:41:41;;;;;;;56.65;26.25;;;;;;;7.62;100.00;101895.22;5227875;28;20107;-78
2021/05/30 00:44:26;;;;;;;28.80;14.57;;;;;;;7.59;100.00;101909.13;5230109;28;20117;-77
2021/05/30 00:46:58;;;;;;;16.63;9.18;;;;;;;7.59;100.00;101903.03;5236998;28;20497;-77
2021/05/30 00:49:29;;;;;;;18.23;10.38;;;;;;;7.40;100.00;101901.34;5238249;28;20036;-76
2021/05/30 00:51:59;;;;;;;13.77;7.93;;;;;;;7.39;100.00;101908.25;5235320;28;20029;-78
2021/05/30 00:54:30;;;;;;;8.02;5.63;;;;;;;7.36;100.00;101904.81;5236138;28;20028;-78
2021/05/30 00:57:00;;;;;;;9.98;5.03;;;;;;;7.22;100.00;101907.41;5238510;28;20059;-78
2021/05/30 00:59:30;;;;;;;6.95;4.28;;;;;;;7.29;100.00;101906.56;5232574;28;20043;-78
2021/05/30 01:02:01;;;;;;;9.07;5.30;;;;;;;7.39;100.00;101903.06;5217941;28;20028;-76
2021/05/30 01:04:32;;;;;;;6.07;3.70;;;;;;;7.31;100.00;101898.72;5231326;28;20036;-77
2021/05/30 01:07:02;;;;;;;5.80;3.88;;;;;;;7.05;100.00;101907.41;5240427;28;20036;-77
2021/05/30 01:09:33;;;;;;;7.47;4.25;;;;;;;7.05;100.00;101902.22;5238278;28;20051;-78
2021/05/30 01:12:04;;;;;;;6.03;4.05;;;;;;;7.11;100.00;101904.84;5237643;28;20059;-76
2021/05/30 01:14:35;;;;;;;6.43;3.47;;;;;;;7.42;100.00;101900.47;5238682;28;20483;-77
2021/05/30 01:17:06;;;;;;;5.28;3.85;;;;;;;7.30;100.00;101910.00;5232666;28;20032;-77
2021/05/30 01:19:39;;;;;;;5.45;4.03;;;;;;;7.39;100.00;101905.66;5232998;28;20363;-78
2021/05/30 01:22:09;;;;;;;9.00;4.70;;;;;;;7.13;100.00;101910.91;5235611;28;20094;-78
2021/05/30 01:24:39;;;;;;;7.13;4.55;;;;;;;7.05;100.00;101915.22;5237160;28;20024;-77
2021/05/30 01:27:10;;;;;;;7.28;4.13;;;;;;;6.95;100.00;101911.75;5236555;28;20594;-77
2021/05/30 01:29:40;;;;;;;7.00;3.80;;;;;;;7.25;100.00;101910.91;5235916;28;20532;-77
2021/05/30 01:32:10;;;;;;;5.05;3.92;;;;;;;7.26;100.00;101913.47;5231164;28;20029;-77
2021/05/30 01:34:41;;;;;;;6.95;4.03;;;;;;;7.22;100.00;101910.88;5233494;28;20045;-77
2021/05/30 01:37:11;;;;;;;5.80;4.18;;;;;;;7.31;100.00;101910.00;5233923;28;20024;-77
2021/05/30 01:39:41;;;;;;;5.55;3.90;;;;;;;7.31;100.00;101901.34;5237074;28;20052;-78
2021/05/30 01:42:11;;;;;;;4.55;3.38;;;;;;;7.38;100.00;101914.31;5233458;28;20032;-77
2021/05/30 01:44:42;;;;;;;5.47;3.80;;;;;;;7.28;100.00;101905.69;5233613;28;20475;-78
2021/05/30 01:47:12;;;;;;;5.05;3.80;;;;;;;6.87;100.00;101910.00;5235191;28;20040;-78
2021/05/30 01:49:43;;;;;;;6.60;3.75;;;;;;;6.69;100.00;101915.19;5234751;28;20024;-76
2021/05/30 01:52:13;;;;;;;5.50;3.85;;;;;;;6.77;100.00;101910.88;5238075;28;20038;-76
2021/05/30 01:54:45;;;;;;;6.07;3.90;;;;;;;6.71;100.00;101910.84;5239075;28;20044;-79
2021/05/30 01:57:16;;;;;;;6.45;3.80;;;;;;;6.66;100.00;101907.41;5240440;28;20032;-79
2021/05/30 01:59:46;;;;;;;6.80;3.83;;;;;;;6.67;100.00;101910.00;5235635;28;20021;-78
2021/05/30 02:02:18;;;;;;;8.23;3.65;;;;;;;6.70;100.00;101914.31;5235883;28;20033;-77
2021/05/30 02:04:49;;;;;;;5.20;3.83;;;;;;;6.85;100.00;101903.94;5274091;22;20042;-80
2021/05/30 02:07:21;;;;;;;5.40;4.13;;;;;;;6.74;100.00;101909.13;5214612;28;20133;-80
2021/05/30 02:09:52;;;;;;;4.40;3.33;;;;;;;7.00;100.00;101911.75;5209056;28;20100;-80
2021/05/30 02:12:22;;;;;;;4.03;3.25;;;;;;;7.10;100.00;101903.09;5215769;28;20036;-80
2021/05/30 02:14:56;;;;;;;4.45;2.97;;;;;;;7.26;100.00;101902.22;5192099;28;20451;-80
2021/05/30 02:17:27;;;;;;;3.95;2.92;;;;;;;7.08;100.00;101917.84;5209963;28;20108;-80
2021/05/30 02:19:57;;;;;;;6.97;3.00;;;;;;;7.16;100.00;101900.50;5215033;28;20125;-80
2021/05/30 02:22:28;;;;;;;5.30;2.88;;;;;;;6.97;100.00;101902.22;5206356;28;20026;-81
2021/05/30 02:24:58;;;;;;;4.25;2.95;;;;;;;7.02;100.00;101912.63;5213965;28;20059;-80
2021/05/30 02:27:28;;;;;;;4.30;2.85;;;;;;;7.09;100.00;101903.97;5208709;28;20033;-80
2021/05/30 02:29:59;;;;;;;3.78;3.03;;;;;;;6.95;100.00;101909.16;5194697;28;20119;-80
2021/05/30 02:32:29;;;;;;;4.95;2.85;;;;;;;6.95;100.00;101914.34;5193515;28;20029;-82
2021/05/30 02:35:00;;;;;;;4.10;3.10;;;;;;;7.01;100.00;101919.56;5179435;28;20430;-81
2021/05/30 02:37:30;;;;;;;4.65;3.38;;;;;;;7.02;100.00;101920.41;5181298;28;20033;-83
2021/05/30 02:40:00;;;;;;;6.00;3.70;;;;;;;6.90;100.00;101923.03;5185337;28;20029;-82
2021/05/30 02:42:31;;;;;;;5.07;3.33;;;;;;;6.69;100.00;101931.66;5169744;28;20022;-80
2021/05/30 02:45:03;;;;;;;5.55;4.07;;;;;;;6.64;100.00;101922.13;5188400;28;20029;-80
2021/05/30 02:47:34;;;;;;;6.90;4.53;;;;;;;6.65;100.00;101935.13;5195255;28;20025;-82
2021/05/30 02:50:05;;;;;;;7.47;4.88;;;;;;;6.95;100.00;101926.50;5186928;28;20087;-82
2021/05/30 02:52:35;;;;;;;6.28;4.80;;;;;;;6.83;100.00;101926.47;5206216;28;20025;-81
2021/05/30 02:55:06;;;;;;;7.97;5.00;;;;;;;6.69;100.00;101933.38;5209201;28;20033;-81
2021/05/30 02:57:36;;;;;;;6.45;4.25;;;;;;;6.66;100.00;101933.38;5196797;28;20037;-80
2021/05/30 03:00:09;;;;;;;7.10;3.92;;;;;;;6.56;100.00;101935.09;5211423;28;20376;-81
2021/05/30 03:02:39;;;;;;;8.25;4.82;;;;;;;6.53;100.00;101940.28;5213283;28;20022;-81
2021/05/30 03:05:10;;;;;;;10.32;5.75;;;;;;;6.43;100.00;101941.09;5192191;28;20034;-82
2021/05/30 03:07:40;;;;;;;10.32;5.63;;;;;;;6.56;100.00;101936.84;5208324;28;20037;-80
2021/05/30 03:10:11;;;;;;;7.07;5.38;;;;;;;6.69;100.00;101931.66;5207661;28;20013;-82
2021/05/30 03:12:41;;;;;;;7.68;5.57;;;;;;;6.83;100.00;101937.75;5210628;28;20037;-80
2021/05/30 03:15:12;;;;;;;7.95;5.63;;;;;;;6.72;100.00;101933.38;5209078;28;20099;-81
2021/05/30 03:17:43;;;;;;;8.90;5.60;;;;;;;6.80;100.00;101934.25;5189827;28;20145;-80
2021/05/30 03:20:14;;;;;;;9.38;6.38;;;;;;;6.65;100.00;101936.84;5213068;28;20028;-83
2021/05/30 03:22:45;;;;;;;8.93;5.85;;;;;;;6.70;100.00;101940.28;5196187;28;20092;-81
2021/05/30 03:25:15;;;;;;;7.97;5.95;;;;;;;6.81;100.00;101929.09;5210584;28;20064;-81
2021/05/30 03:27:46;;;;;;;8.70;6.28;;;;;;;6.68;100.00;101931.63;5196960;28;20432;-80
2021/05/30 03:30:16;;;;;;;12.73;5.97;;;;;;;6.57;100.00;101938.56;5200012;28;20028;-80
2021/05/30 03:32:47;;;;;;;12.63;6.70;;;;;;;6.63;100.00;101935.97;5195263;28;20033;-80
2021/05/30 03:35:17;;;;;;;8.80;6.28;;;;;;;6.52;100.00;101940.25;5196484;28;20029;-80
2021/05/30 03:37:48;;;;;;;8.07;6.10;;;;;;;6.74;100.00;101932.53;5195178;28;20032;-80
2021/05/30 03:43:01;;;;;;;11.07;6.45;;;;;;;6.58;100.00;101940.28;5212884;28;20037;-80
2021/05/30 03:45:31;;;;;;;9.80;6.65;;;;;;;6.65;100.00;101931.63;5211513;28;20165;-80
2021/05/30 03:48:01;;;;;;;10.63;7.53;;;;;;;6.61;100.00;101943.75;5192858;28;20539;-80
2021/05/30 03:50:33;;;;;;;11.35;7.65;;;;;;;6.76;100.00;101937.72;5197596;28;20024;-80
2021/05/30 03:53:03;;;;;;;8.95;6.90;;;;;;;6.92;100.00;101936.88;5209578;28;20100;-80
2021/05/30 03:55:33;;;;;;;10.13;6.70;;;;;;;7.33;100.00;101936.03;5213330;28;20570;-80
2021/05/30 03:58:04;;;;;;;9.68;5.75;;;;;;;7.53;100.00;101929.91;5193860;28;20108;-80
2021/05/30 04:00:34;;;;;;;10.48;5.20;;;;;;;7.68;100.00;101929.03;5211580;28;20045;-80
2021/05/30 04:03:05;;;;;;;8.93;5.25;;;;;;;7.57;100.00;101926.47;5202838;28;20405;-80
2021/05/30 04:05:36;;;;;;;8.38;5.32;;;;;;;7.51;100.00;101926.44;5191775;28;20025;-80
2021/05/30 04:08:06;;;;;;;8.50;5.28;;;;;;;7.65;100.00;101924.69;5195504;28;20033;-80
2021/05/30 04:10:36;;;;;;;9.70;6.10;;;;;;;7.78;100.00;101926.41;5194380;28;20136;-80
2021/05/30 04:13:07;;;;;;;11.68;6.57;;;;;;;7.79;100.00;101922.94;5217236;28;20033;-80
2021/05/30 04:15:37;;;;;;;10.60;6.78;;;;;;;7.98;100.00;101934.13;5198055;28;20031;-80
2021/05/30 04:18:08;;;;;;;15.15;7.90;;;;;;;8.06;100.00;101928.03;5215804;28;20482;-80
2021/05/30 04:20:38;;;;;;;10.80;7.28;;;;;;;7.96;100.00;101921.16;5195574;28;20030;-80
2021/05/30 04:23:08;;;;;;;10.50;6.43;;;;;;;8.24;100.00;101927.97;5216416;28;20488;-80
2021/05/30 04:25:41;;;;;;;8.60;5.80;;;;;;;8.73;98.45;101923.38;5196277;28;20056;-80
2021/05/30 04:28:11;;;;;;;9.65;5.72;;;;;;;8.79;98.12;101924.22;5198215;28;20036;-80
2021/05/30 04:30:41;;;;;;;9.98;6.20;;;;;;;9.21;95.29;101923.88;5196563;28;20026;-80
2021/05/30 04:33:12;;;;;;;10.07;5.88;;;;;;;9.56;94.13;101916.59;5197688;28;20056;-80
2021/05/30 04:35:42;;;;;;;10.05;5.43;;;;;;;11.34;86.60;101908.91;5187142;28;20025;-80
2021/05/30 04:38:12;;;;;;;11.02;4.53;;;;;;;12.29;84.85;101914.03;5187534;28;20090;-81
2021/05/30 04:40:43;;;;;;;9.60;4.90;;;;;;;13.67;75.47;101905.44;5195023;28;20026;-81
2021/05/30 04:43:14;;;;;;;7.50;4.78;;;;;;;15.09;76.15;101888.81;5217370;28;20028;-81
2021/05/30 04:45:44;;;;;;;6.40;4.47;;;;;;;15.47;72.13;101895.44;5189578;28;20022;-82
2021/05/30 04:48:14;;;;;;;7.22;4.30;;;;;;;16.56;67.95;101895.81;5197839;28;20040;-81
2021/05/30 04:51:05;;;;;;;7.17;4.20;;;;;;;16.73;69.00;101896.84;5220745;28;20078;-82
2021/05/30 04:53:36;;;;;;;5.45;3.88;;;;;;;17.87;66.19;101899.94;5213043;28;20677;-82
2021/05/30 04:56:08;;;;;;;5.53;3.60;;;;;;;19.78;60.83;101887.84;5220667;28;20048;-82
2021/05/30 04:58:38;;;;;;;7.07;4.13;;;;;;;17.86;64.41;101900.84;5208853;28;20483;-82
2021/05/30 05:01:08;;;;;;;6.45;4.75;;;;;;;15.28;70.10;101907.50;5207280;28;20038;-81
2021/05/30 05:03:39;;;;;;;5.50;4.13;;;;;;;15.81;70.39;101896.84;5196222;28;20017;-81
2021/05/30 05:06:10;;;;;;;5.18;4.22;;;;;;;17.38;67.84;101900.34;5212965;28;20673;-79
2021/05/30 05:08:40;;;;;;;6.20;4.55;;;;;;;17.66;64.02;101899.06;5217620;28;20483;-79
2021/05/30 05:11:10;;;;;;;5.28;3.90;;;;;;;18.67;64.06;101889.16;5218036;28;20040;-79
2021/05/30 05:13:41;;;;;;;5.67;4.13;;;;;;;18.52;63.29;101892.53;5213210;28;20025;-79
2021/05/30 05:16:11;;;;;;;5.25;3.90;;;;;;;21.35;58.46;101886.03;5205041;28;20280;-79
2021/05/30 05:18:42;;;;;;;5.45;4.05;;;;;;;22.11;56.99;101873.34;5214476;28;20025;-79
2021/05/30 05:21:12;;;;;;;7.22;4.68;;;;;;;21.44;58.93;101886.34;5212290;28;20037;-79
2021/05/30 05:23:42;;;;;;;9.23;6.43;;;;;;;20.37;61.53;101890.84;5197755;28;20120;-79
2021/05/30 05:26:13;;;;;;;10.85;7.20;;;;;;;21.74;56.79;101883.72;5214127;28;20276;-79
2021/05/30 05:28:43;;;;;;;9.38;6.15;;;;;;;21.36;61.22;101893.06;5215219;28;20048;-79
2021/05/30 05:31:14;;;;;;;11.77;6.57;;;;;;;22.95;58.07;101883.84;5213754;28;20104;-79
2021/05/30 05:33:44;;;;;;;14.02;7.32;;;;;;;23.48;55.65;101876.69;5214389;28;20286;-79
2021/05/30 05:36:16;;;;;;;15.15;7.90;;;;;;;23.50;55.47;101872.09;5214290;28;20033;-78
2021/05/30 05:38:47;;;;;;;12.90;7.40;;;;;;;23.01;56.53;101870.13;5215791;28;20025;-78
2021/05/30 05:41:17;;;;;;;13.60;7.75;;;;;;;20.08;62.61;101886.25;5195207;28;20025;-78
2021/05/30 05:43:48;;;;;;;14.95;8.07;;;;;;;21.39;60.48;101879.63;5210669;28;20108;-78
2021/05/30 05:46:18;;;;;;;15.55;7.88;;;;;;;21.82;60.01;101876.09;5213944;28;20475;-78
2021/05/30 05:48:49;;;;;;;15.18;8.10;;;;;;;20.05;63.71;101880.25;5212797;28;20089;-78
2021/05/30 05:51:19;;;;;;;13.95;8.38;;;;;;;20.47;62.71;101873.44;5212790;28;20098;-78
2021/05/30 05:53:49;;;;;;;16.10;8.90;;;;;;;19.76;64.66;101873.81;5210788;28;20028;-78
2021/05/30 05:56:20;;;;;;;17.90;9.20;;;;;;;18.55;69.25;101881.78;5206563;28;20025;-78
2021/05/30 05:58:51;;;;;;;17.08;9.38;;;;;;;18.25;70.24;101880.53;5213232;28;20029;-78
2021/05/30 06:01:21;;;;;;;16.27;9.18;;;;;;;17.41;71.78;101889.63;5211928;28;20021;-78
2021/05/30 06:03:51;;;;;;;15.82;8.68;;;;;;;17.82;71.27;101878.13;5208277;28;20029;-78
2021/05/30 06:06:22;;;;;;;18.20;9.15;;;;;;;18.29;71.24;101875.06;5190331;28;20086;-78
2021/05/30 06:08:52;;;;;;;16.55;8.88;;;;;;;17.83;72.72;101879.84;5196923;28;20092;-78
2021/05/30 06:11:22;;;;;;;17.93;8.70;;;;;;;17.74;74.03;101885.53;5212820;28;20025;-78
2021/05/30 06:13:52;;;;;;;17.13;9.03;;;;;;;17.86;72.94;101879.69;5191524;28;20721;-78
2021/05/30 06:16:23;;;;;;;17.70;9.07;;;;;;;18.30;72.80;101876.78;5202206;28;20279;-78
2021/05/30 06:18:54;;;;;;;19.20;8.75;;;;;;;18.66;71.94;101879.50;5209105;28;20028;-78
2021/05/30 06:21:26;;;;;;;14.90;8.18;;;;;;;18.35;72.75;101884.50;5210533;28;20108;-78
2021/05/30 06:23:58;;;;;;;17.33;8.35;;;;;;;18.47;70.91;101881.25;5202538;28;20029;-78
2021/05/30 06:26:28;;;;;;;15.25;8.43;;;;;;;19.13;70.06;101879.72;5180702;28;20048;-78
2021/05/30 06:28:58;;;;;;;16.25;7.82;;;;;;;18.50;70.50;101875.84;5189082;28;20061;-78
2021/05/30 06:31:29;;;;;;;13.43;7.97;;;;;;;19.82;67.91;101877.94;5187761;28;20025;-78
2021/05/30 06:33:59;;;;;;;15.57;8.55;;;;;;;19.18;69.43;101875.09;5206622;28;20299;-78
2021/05/30 06:36:30;;;;;;;17.35;8.73;;;;;;;19.80;67.44;101870.03;5195469;28;20044;-79
2021/05/30 06:39:01;;;;;;;15.25;8.65;;;;;;;19.61;70.07;101871.94;5206573;28;20017;-78
2021/05/30 06:41:32;;;;;;;17.83;8.48;;;;;;;20.57;65.48;101872.00;5204879;28;20021;-78
2021/05/30 06:44:05;;;;;;;17.50;8.85;;;;;;;20.67;65.78;101868.75;5209430;28;20025;-78
2021/05/30 06:46:36;;;;;;;13.52;8.80;;;;;;;21.10;65.17;101875.97;5185082;28;20033;-78
2021/05/30 06:49:06;;;;;;;14.98;7.60;;;;;;;20.02;67.20;101881.28;5197952;28;20507;-76
2021/05/30 06:51:37;;;;;;;15.32;7.75;;;;;;;20.39;64.80;101883.66;5220901;28;20025;-77
2021/05/30 06:54:09;;;;;;;17.13;8.60;;;;;;;21.44;62.38;101877.53;5223365;28;20056;-77
2021/05/30 06:56:39;;;;;;;13.48;8.07;;;;;;;20.85;65.19;101877.47;5221435;28;20017;-78
2021/05/30 06:59:10;;;;;;;15.82;8.02;;;;;;;20.88;66.51;101874.69;5203668;28;20040;-78
2021/05/30 07:01:40;;;;;;;17.77;9.48;;;;;;;19.04;70.59;101877.53;5222393;28;20474;-78
2021/05/30 07:04:10;;;;;;;15.73;7.75;;;;;;;21.54;66.41;101873.38;5203415;28;20029;-79
2021/05/30 07:06:41;;;;;;;15.93;8.57;;;;;;;22.80;61.32;101869.72;5204350;28;20025;-79
2021/05/30 07:09:11;;;;;;;15.88;8.27;;;;;;;21.16;63.19;101878.31;5208071;28;20036;-79
2021/05/30 07:11:41;;;;;;;15.45;8.68;;;;;;;19.38;68.54;101877.59;5203873;28;20499;-78
2021/05/30 07:14:11;;;;;;;14.35;8.60;;;;;;;20.97;65.27;101869.69;5201534;28;20041;-80
2021/05/30 07:16:42;;;;;;;18.33;8.60;;;;;;;21.43;62.82;101873.16;5222896;28;20037;-80
2021/05/30 07:19:12;;;;;;;13.73;7.85;;;;;;;20.52;67.18;101870.53;5204021;28;20021;-78
2021/05/30 07:21:43;;;;;;;15.70;8.23;;;;;;;22.24;62.52;101868.13;5204649;28;20430;-78
2021/05/30 07:24:13;;;;;;;14.75;8.15;;;;;;;22.83;60.99;101868.69;5204555;28;20025;-79
2021/05/30 07:26:43;;;;;;;14.00;8.32;;;;;;;22.40;60.27;101871.56;5204878;28;20024;-79
2021/05/30 07:29:16;;;;;;;15.60;8.07;;;;;;;23.41;60.68;101870.06;5202621;28;20040;-78
2021/05/30 07:31:48;;;;;;;14.43;8.07;;;;;;;22.77;59.62;101874.41;5194773;28;20029;-79
2021/05/30 07:34:18;;;;;;;16.42;7.90;;;;;;;24.04;59.23;101870.94;5200070;28;20037;-78
2021/05/30 07:36:49;;;;;;;14.32;7.50;;;;;;;23.76;57.81;101876.50;5200060;28;20033;-79
2021/05/30 07:39:19;;;;;;;15.30;8.52;;;;;;;22.80;59.18;101872.41;5193408;28;20021;-78
2021/05/30 07:41:49;;;;;;;13.77;7.43;;;;;;;23.90;59.59;101873.72;5204903;28;20025;-77
2021/05/30 07:44:20;;;;;;;14.68;7.55;;;;;;;24.80;57.97;101878.69;5194358;28;20295;-80
2021/05/30 07:46:52;;;;;;;10.95;7.13;;;;;;;25.91;54.79;101874.63;5214136;28;20108;-79
2021/05/30 07:49:22;;;;;;;13.13;7.55;;;;;;;24.17;56.41;101871.78;5220618;28;20084;-80
2021/05/30 07:51:53;;;;;;;11.25;7.55;;;;;;;25.21;55.95;101864.94;5190890;28;20105;-80
2021/05/30 07:54:24;;;;;;;14.32;7.72;;;;;;;24.89;55.44;101866.47;5218523;28;20057;-78
2021/05/30 07:56:54;;;;;;;12.63;6.53;;;;;;;24.84;55.99;101871.31;5197336;28;20552;-80
2021/05/30 07:59:25;;;;;;;12.70;6.77;;;;;;;24.49;56.91;101867.66;5221444;28;20025;-77
2021/05/30 08:01:59;;;;;;;13.00;7.20;;;;;;;24.14;58.53;101863.13;5217329;28;20825;-79
2021/05/30 08:04:29;;;;;;;12.73;7.15;;;;;;;24.17;59.26;101869.13;5203851;28;20279;-80
2021/05/30 08:07:00;;;;;;;12.15;7.47;;;;;;;24.62;56.29;101868.50;5195474;28;20505;-81
2021/05/30 08:09:30;;;;;;;12.45;6.80;;;;;;;25.38;55.43;101856.47;5181669;28;20302;-81
2021/05/30 08:12:01;;;;;;;12.70;6.10;;;;;;;25.88;54.58;101848.06;5190872;28;20032;-81
2021/05/30 08:14:32;;;;;;;11.45;6.63;;;;;;;27.18;51.78;101843.47;5213592;28;20361;-80
2021/05/30 08:17:04;;;;;;;9.18;6.32;;;;;;;26.44;54.42;101844.38;5216850;28;20028;-80
2021/05/30 08:19:35;;;;;;;11.60;6.63;;;;;;;28.47;50.24;101848.16;5215464;28;20035;-81
2021/05/30 08:22:05;;;;;;;8.98;5.90;;;;;;;26.67;51.28;101846.09;5205985;28;20028;-80
2021/05/30 08:24:38;;;;;;;11.02;6.10;;;;;;;26.33;52.95;101857.81;5199681;28;20055;-80
2021/05/30 08:27:10;;;;;;;13.55;6.32;;;;;;;27.08;53.48;101852.41;5219802;28;20534;-80
2021/05/30 08:29:41;;;;;;;13.68;6.60;;;;;;;26.08;55.01;101847.34;5216176;28;20079;-81
2021/05/30 08:32:11;;;;;;;9.70;5.80;;;;;;;26.15;53.99;101848.59;5199336;28;20051;-81
2021/05/30 08:34:42;;;;;;;12.43;5.77;;;;;;;26.80;50.90;101843.09;5214400;28;20061;-80
2021/05/30 08:37:14;;;;;;;11.45;5.70;;;;;;;27.97;50.87;101840.19;5196131;28;20359;-80
2021/05/30 08:39:48;;;;;;;8.23;4.90;;;;;;;27.32;49.99;101845.00;5201997;28;20020;-81
2021/05/30 08:42:20;;;;;;;8.37;4.40;;;;;;;26.97;52.24;101845.22;5182359;28;20017;-80
2021/05/30 08:44:53;;;;;;;8.70;5.13;;;;;;;28.20;49.91;101844.38;5180171;28;20036;-80
2021/05/30 08:47:23;;;;;;;11.98;5.70;;;;;;;27.25;50.57;101846.50;5202578;28;20045;-81
2021/05/30 08:49:53;;;;;;;9.90;5.32;;;;;;;26.98;52.45;101844.28;5183592;28;20112;-80
2021/05/30 08:52:24;;;;;;;9.05;5.20;;;;;;;27.82;51.15;101850.41;5200622;28;20036;-80
2021/05/30 08:54:55;;;;;;;9.48;5.40;;;;;;;29.09;49.85;101846.00;5184528;28;20088;-80
2021/05/30 08:57:26;;;;;;;9.50;4.95;;;;;;;27.32;49.28;101835.13;5208258;28;20521;-80
2021/05/30 08:59:57;;;;;;;11.45;5.15;;;;;;;25.99;53.40;101846.25;5201919;28;20029;-80
2021/05/30 09:02:28;;;;;;;9.13;5.13;;;;;;;27.90;50.53;101841.69;5181403;28;20035;-80
2021/05/30 09:05:16;;;;;;;9.37;4.90;;;;;;;29.64;47.09;101838.03;5198707;28;20830;-80
2021/05/30 09:07:47;;;;;;;7.93;3.67;;;;;;;28.02;46.57;101836.09;5195218;28;20532;-80
2021/05/30 09:10:26;;;;;;;7.80;3.60;;;;;;;28.98;47.34;101840.75;5199348;28;20034;-80
2021/05/30 09:13:17;;;;;;;8.95;5.28;;;;;;;28.76;48.29;101846.38;5211989;28;20044;-80
2021/05/30 09:16:08;;;;;;;8.38;4.90;;;;;;;26.09;53.65;101849.03;5174699;28;20080;-80
2021/05/30 09:18:39;;;;;;;8.85;5.47;;;;;;;23.10;59.20;101851.69;5212193;28;20031;-81
2021/05/30 09:21:12;;;;;;;9.95;4.72;;;;;;;25.43;54.59;101844.44;5198683;28;20111;-80
2021/05/30 09:23:46;;;;;;;9.02;4.40;;;;;;;25.92;52.43;101841.50;5191079;28;20044;-81
2021/05/30 09:26:18;;;;;;;8.73;4.28;;;;;;;26.37;51.61;101832.47;5194358;28;20639;-80
2021/05/30 09:29:09;;;;;;;7.85;3.72;;;;;;;26.65;49.96;101829.28;5203143;28;20411;-80
2021/05/30 09:31:57;;;;;;;9.43;3.53;;;;;;;28.01;47.77;101822.78;5179502;28;20036;-79
2021/05/30 09:34:29;;;;;;;8.57;3.75;;;;;;;27.87;47.74;101831.19;5199253;28;20040;-80
2021/05/30 09:37:01;;;;;;;8.40;4.18;;;;;;;25.44;51.33;101835.44;5200605;28;20082;-80
2021/05/30 09:39:45;;;;;;;7.57;3.97;;;;;;;27.11;50.84;101826.16;5185792;28;20045;-81
2021/05/30 09:42:26;;;;;;;7.22;4.20;;;;;;;27.05;49.94;101839.22;5197619;28;20232;-80
2021/05/30 09:45:00;;;;;;;8.13;4.20;;;;;;;25.67;51.22;101826.47;5199269;28;20444;-81
2021/05/30 09:47:31;;;;;;;8.25;4.40;;;;;;;27.00;51.98;101826.22;5188637;28;20586;-77
2021/05/30 09:50:08;;;;;;;7.00;4.18;;;;;;;26.21;51.16;101829.31;5189312;28;20783;-79
2021/05/30 09:52:39;;;;;;;9.25;4.28;;;;;;;27.00;49.12;101834.25;5203810;28;20046;-80
2021/05/30 09:55:13;;;;;;;7.88;4.00;;;;;;;26.44;48.51;101839.03;5192960;28;20116;-80
2021/05/30 09:58:05;;;;;;;8.50;4.20;;;;;;;25.64;49.99;101836.59;5189744;28;20025;-77
2021/05/30 10:00:35;;;;;;;6.78;3.85;;;;;;;26.01;51.32;101830.91;5189487;28;20036;-77
2021/05/30 10:03:06;;;;;;;7.90;4.35;;;;;;;26.45;51.95;101833.53;5196049;28;20045;-81
2021/05/30 10:05:37;;;;;;;7.25;4.30;;;;;;;23.58;57.21;101842.19;5204317;28;20095;-80
2021/05/30 10:08:07;;;;;;;6.93;3.58;;;;;;;24.11;54.34;101836.63;5215268;28;20037;-77
2021/05/30 10:10:38;;;;;;;5.90;3.63;;;;;;;24.16;55.05;101847.84;5212796;28;20033;-77
2021/05/30 10:13:10;;;;;;;6.03;3.42;;;;;;;23.07;55.59;101835.91;5188439;28;20438;-80
2021/05/30 10:15:40;;;;;;;8.85;3.83;;;;;;;22.44;56.25;101841.09;5198824;28;20032;-76
2021/05/30 10:18:23;;;;;;;5.30;3.20;;;;;;;22.54;56.58;101843.06;5201506;28;20090;-80
2021/05/30 10:20:54;;;;;;;5.82;3.30;;;;;;;22.56;55.77;101838.47;5216289;28;20675;-78
2021/05/30 10:23:27;;;;;;;7.75;3.10;;;;;;;22.88;53.85;101838.06;5218376;28;20022;-79
2021/05/30 10:26:16;;;;;;;9.98;3.60;;;;;;;22.49;57.27;101833.63;5196447;28;20417;-78
2021/05/30 10:28:56;;;;;;;9.88;4.80;;;;;;;20.84;63.18;101838.56;5194723;28;20030;-78
2021/05/30 10:31:29;;;;;;;9.90;4.40;;;;;;;21.53;63.20;101835.25;5196123;28;20033;-78
2021/05/30 10:34:18;;;;;;;7.25;3.88;;;;;;;21.27;59.34;101830.63;5193298;28;20041;-78
2021/05/30 10:36:54;;;;;;;5.95;3.60;;;;;;;20.90;59.55;101830.25;5217665;28;20037;-78
2021/05/30 10:39:33;;;;;;;8.93;3.90;;;;;;;21.45;59.14;101826.03;5184828;28;20038;-79
2021/05/30 10:42:17;;;;;;;7.57;3.38;;;;;;;21.20;57.51;101826.63;5195876;28;20121;-79
2021/05/30 10:44:49;;;;;;;9.80;3.53;;;;;;;21.52;56.80;101819.38;5182023;28;20037;-80
2021/05/30 10:47:20;;;;;;;7.25;3.78;;;;;;;20.96;58.24;101821.91;5210397;28;20025;-79
2021/05/30 10:50:13;;;;;;;8.00;3.30;;;;;;;21.25;57.57;101818.38;5188696;28;20107;-81
2021/05/30 10:52:45;;;;;;;6.75;3.50;;;;;;;21.52;57.76;101822.03;5192635;28;20104;-79
2021/05/30 10:55:26;;;;;;;7.63;4.20;;;;;;;21.62;58.01;101815.22;5189984;28;20096;-79
2021/05/30 10:57:57;;;;;;;8.63;3.95;;;;;;;21.90;58.12;101810.78;5214586;28;20036;-79
2021/05/30 11:00:34;;;;;;;8.30;3.63;;;;;;;21.76;59.23;101801.94;5204337;28;20092;-80
2021/05/30 11:03:08;;;;;;;7.07;3.55;;;;;;;21.40;59.23;101814.81;5201124;28;20395;-79
2021/05/30 11:05:49;;;;;;;7.43;3.65;;;;;;;21.09;58.38;101809.59;5207552;28;20088;-79
2021/05/30 11:08:31;;;;;;;8.77;3.88;;;;;;;20.60;60.23;101810.72;5203369;28;20030;-79
2021/05/30 11:11:29;;;;;;;10.93;4.07;;;;;;;21.28;59.67;101804.91;5197297;28;20049;-80
2021/05/30 11:14:07;;;;;;;6.13;3.85;;;;;;;21.52;58.19;101804.28;5205023;28;20033;-80
2021/05/30 11:16:45;;;;;;;9.40;4.15;;;;;;;21.33;58.09;101802.81;5209057;28;20064;-80
2021/05/30 11:19:19;;;;;;;6.15;3.30;;;;;;;21.72;56.45;101795.09;5209119;28;20026;-80
2021/05/30 11:21:50;;;;;;;8.13;2.97;;;;;;;21.79;57.59;101799.09;5194557;28;20032;-79
2021/05/30 11:24:26;;;;;;;5.82;2.92;;;;;;;21.56;57.45;101807.59;5186320;28;20116;-79
2021/05/30 11:26:57;;;;;;;6.15;3.40;;;;;;;20.56;57.31;101795.91;5207210;28;20053;-80
2021/05/30 11:29:29;;;;;;;6.93;3.33;;;;;;;20.92;59.52;101791.13;5193229;28;20468;-79
2021/05/30 11:32:01;;;;;;;6.78;3.20;;;;;;;21.25;57.11;101795.28;5217326;28;20853;-79
2021/05/30 11:34:33;;;;;;;5.78;2.90;;;;;;;21.33;57.08;101805.47;5207866;28;20075;-79
2021/05/30 11:37:10;;;;;;;6.47;2.70;;;;;;;21.28;57.08;101792.47;5204046;28;20040;-80
2021/05/30 11:39:43;;;;;;;6.80;3.25;;;;;;;20.44;59.75;101788.63;5176279;28;20022;-80
2021/05/30 11:42:13;;;;;;;5.47;3.40;;;;;;;21.16;59.69;101789.66;5162311;28;20070;-79
2021/05/30 11:44:44;;;;;;;7.70;3.03;;;;;;;21.66;59.37;101790.13;5200895;28;20061;-80
2021/05/30 11:47:14;;;;;;;6.88;3.33;;;;;;;21.45;59.46;101788.78;5204410;28;20044;-79